CST,Max TemperatureF,Mean TemperatureF,Min TemperatureF,Max Dew PointF,MeanDew PointF,Min DewpointF,Max Humidity, Mean Humidity, Min Humidity, Max Sea Level PressureIn, Mean Sea Level PressureIn, Min Sea Level PressureIn, Max VisibilityMiles, Mean VisibilityMiles, Min VisibilityMiles, Max Wind SpeedMPH, Mean Wind SpeedMPH, Max Gust SpeedMPH,PrecipitationIn, CloudCover, Events, WindDirDegrees
2012-12-1,64,50,36,30,25,21,56,40,22,29.98,29.90,29.82,10,10,10,33,14,41,0.00,1,,281
2012-12-2,62,46,30,28,22,15,74,48,16,29.98,29.81,29.61,10,10,10,23,8,26,0.00,0,,231
2012-12-3,59,44,30,32,16,2,74,33,18,30.18,29.94,29.60,10,10,7,45,19,58,0.00,0,,306
2012-12-4,52,37,22,15,9,1,58,33,17,30.30,30.21,30.13,10,10,10,20,11,25,0.00,0,,252
2012-12-5,63,47,31,27,21,15,53,35,20,30.14,29.94,29.82,10,10,10,30,10,37,0.00,1,,254
2012-12-6,50,37,26,34,25,18,81,61,44,30.04,29.94,29.87,10,10,10,22,11,29,0.00,1,,120
2012-12-7,42,34,24,23,18,15,76,57,39,29.92,29.84,29.77,10,10,10,22,12,31,0.00,3,,306
2012-12-8,43,30,18,29,19,10,85,62,30,29.88,29.74,29.62,10,10,2,41,15,53,0.00,5,Rain,260
2012-12-9,20,10,1,11,2,-6,76,64,40,30.13,30.04,29.89,10,10,10,31,18,44,0.00,0,,319
2012-12-10,37,20,4,19,7,-2,83,53,28,30.00,29.86,29.77,10,10,10,28,13,36,0.00,5,,293
2012-12-11,42,24,8,19,10,4,91,60,26,29.92,29.84,29.74,10,10,10,21,11,28,0.00,0,,252
2012-12-12,57,37,18,14,12,7,67,40,14,29.87,29.76,29.70,10,10,10,20,12,24,0.00,0,,251
2012-12-13,50,36,22,17,14,12,66,44,24,30.01,29.93,29.87,10,10,10,21,9,28,0.00,0,,212
2012-12-14,47,34,21,22,15,11,73,53,27,29.87,29.65,29.48,10,10,10,15,6,,0.00,3,,247
2012-12-15,45,36,27,32,24,14,96,65,47,29.71,29.66,29.53,10,9,1,17,11,23,0.05,4,Rain-Snow,325
2012-12-16,41,32,19,32,23,12,98,78,46,29.75,29.68,29.63,10,7,0,22,7,30,0.01,5,Fog-Snow,268
2012-12-17,51,33,15,30,18,11,84,62,29,29.74,29.59,29.45,10,10,7,38,10,48,0.00,3,,256
2012-12-18,44,32,21,22,10,-5,72,41,13,29.76,29.68,29.60,10,10,10,28,19,36,0.00,5,,294
2012-12-19,27,16,6,20,12,-3,89,74,57,30.06,29.83,29.68,10,8,0,28,15,36,0.00,6,Snow,340
2012-12-20,38,24,11,16,9,0,65,51,39,30.14,30.10,30.05,10,10,10,26,17,37,0.00,0,,289
2012-12-21,55,36,16,19,12,6,70,47,15,30.14,30.09,30.01,10,10,10,16,10,,0.00,0,,252
2012-12-22,54,34,14,19,10,3,76,46,13,30.02,29.97,29.89,10,10,10,20,8,,0.00,0,,271
2012-12-23,48,33,18,16,12,6,74,44,22,29.94,29.88,29.82,10,10,10,29,13,36,0.00,0,,294
2012-12-24,32,23,14,22,17,12,95,78,59,29.96,29.84,29.76,10,8,2,17,8,21,0.00,7,Snow,139
2012-12-25,13,6,-1,11,3,-5,89,84,74,30.21,30.10,29.96,10,6,0,13,8,,0.00,4,Snow,101
2012-12-26,19,7,-5,14,7,-9,92,84,75,29.99,29.77,29.61,10,9,1,15,7,16,0.01,4,Snow,180
2012-12-27,19,10,0,13,7,-4,92,85,72,29.84,29.70,29.59,10,7,1,16,7,21,0.00,4,Snow,315
2012-12-28,29,16,3,18,9,0,87,75,61,30.04,29.91,29.83,10,10,10,18,10,23,0.00,2,Snow,303
2012-12-29,32,18,3,17,6,-4,81,67,49,30.13,30.03,29.89,10,10,10,15,10,,0.00,0,,237
2012-12-30,32,18,3,15,8,0,85,61,40,30.02,29.91,29.83,10,10,10,18,10,23,0.00,1,,316
2012-12-31,24,14,5,16,10,2,92,82,68,30.02,29.96,29.92,10,10,7,8,4,,0.00,4,,272